Latest Weather Observations for Fort Denison

IDN60801

Issued at 10:32 am EST Tuesday 26 May 2020 (issued every 10 minutes, with the page automatically refreshed every 10 minutes)

About weather observations | Map of weather stations | Latest weather observations for NSW | Other Formats
Station Details ID: 066022 Name: FORT DENISON Lat: -33.86 Lon: 151.23 Height: 5.0 m
Data from the previous 72 hours. | See also: Recent months for locations in New South Wales
Date/Time
EST
Temp
°C
App
Temp
°C
Dew
Point
°C
Rel
Hum
%
Delta-T
°C
Wind Press
QNH
hPa
Press
MSL
hPa
Rain since
9am
mm
Dir  Spd
km/h
Gust
km/h
Spd
kts
Gust
kts
26/10:30am - - - - - SSE 20 30 11 16 - - -
26/10:00am - - - - - SW 9 17 5 9 - - -
26/09:30am - - - - - SE 15 24 8 13 - - -
26/09:00am - - - - - SW 19 28 10 15 - - -
26/08:30am - - - - - SW 24 33 13 18 - - -
26/08:00am - - - - - SSW 17 28 9 15 - - -
26/07:30am - - - - - SSW 20 32 11 17 - - -
26/07:00am - - - - - SSW 20 32 11 17 - - -
26/06:30am - - - - - SSW 20 39 11 21 - - -
26/06:00am - - - - - SSW 22 33 12 18 - - -
26/05:30am - - - - - SW 22 35 12 19 - - -
26/05:00am - - - - - SSW 17 28 9 15 - - -
26/04:30am - - - - - SSW 24 41 13 22 - - -
26/04:00am - - - - - SSW 19 30 10 16 - - -
26/03:30am - - - - - SSW 19 32 10 17 - - -
26/03:00am - - - - - SW 20 37 11 20 - - -
26/02:30am - - - - - SW 22 32 12 17 - - -
26/02:00am - - - - - SSW 28 43 15 23 - - -
26/01:30am - - - - - SW 24 41 13 22 - - -
26/01:00am - - - - - SW 28 46 15 25 - - -
26/12:52am - - - - - SSW 28 46 15 25 - - -
26/12:30am - - - - - SSW 24 39 13 21 - - -
26/12:00am - - - - - SSW 26 39 14 21 - - -
 
Date/Time
EST
Temp
°C
App
Temp
°C
Dew
Point
°C
Rel
Hum
%
Delta-T
°C
Wind Press
QNH
hPa
Press
MSL
hPa
Rain since
9am
mm
Dir  Spd
km/h
Gust
km/h
Spd
kts
Gust
kts
25/11:30pm - - - - - SW 26 41 14 22 - - -
25/11:01pm - - - - - SW 28 46 15 25 - - -
25/11:00pm - - - - - SW 30 46 16 25 - - -
25/10:42pm - - - - - SW 28 48 15 26 - - -
25/10:30pm - - - - - SSW 28 43 15 23 - - -
25/10:00pm - - - - - WSW 20 30 11 16 - - -
25/09:30pm - - - - - SW 22 44 12 24 - - -
25/09:07pm - - - - - SW 28 46 15 25 - - -
25/09:00pm - - - - - SSW 30 41 16 22 - - -
25/08:40pm - - - - - SSW 28 48 15 26 - - -
25/08:30pm - - - - - SSW 24 41 13 22 - - -
25/08:00pm - - - - - SW 24 43 13 23 - - -
25/07:30pm - - - - - SSW 28 46 15 25 - - -
25/07:00pm - - - - - SW 32 52 17 28 - - -
25/06:34pm - - - - - SW 28 48 15 26 - - -
25/06:30pm - - - - - SW 24 48 13 26 - - -
25/06:00pm - - - - - SW 30 50 16 27 - - -
25/05:43pm - - - - - SW 28 54 15 29 - - -
25/05:30pm - - - - - SW 24 46 13 25 - - -
25/05:05pm - - - - - SW 30 50 16 27 - - -
25/05:00pm - - - - - SW 28 43 15 23 - - -
25/04:30pm - - - - - SSW 30 52 16 28 - - -
25/04:00pm - - - - - SSW 28 52 15 28 - - -
25/03:30pm - - - - - SW 35 56 19 30 - - -
25/03:00pm - - - - - SSW 30 54 16 29 - - -
25/02:30pm - - - - - SSW 33 52 18 28 - - -
25/02:00pm - - - - - SW 30 57 16 31 - - -
25/01:30pm - - - - - SW 33 61 18 33 - - -
25/01:04pm - - - - - SW 28 50 15 27 - - -
25/01:00pm - - - - - SW 26 43 14 23 - - -
25/12:37pm - - - - - SW 28 46 15 25 - - -
25/12:30pm - - - - - SW 30 46 16 25 - - -
25/12:07pm - - - - - SW 28 46 15 25 - - -
25/12:00pm - - - - - SSW 24 43 13 23 - - -
25/11:30am - - - - - SSW 28 48 15 26 - - -
25/11:00am - - - - - SW 32 52 17 28 - - -
25/10:30am - - - - - SW 28 52 15 28 - - -
25/10:29am - - - - - SW 28 52 15 28 - - -
25/10:00am - - - - - SW 24 33 13 18 - - -
25/09:30am - - - - - SW 26 43 14 23 - - -
25/09:00am - - - - - SW 30 50 16 27 - - -
25/08:55am - - - - - WSW 28 50 15 27 - - -
25/08:30am - - - - - SW 24 37 13 20 - - -
25/08:00am - - - - - SW 26 46 14 25 - - -
25/07:30am - - - - - WSW 24 41 13 22 - - -
25/07:00am - - - - - SW 22 37 12 20 - - -
25/06:30am - - - - - W 20 37 11 20 - - -
25/06:00am - - - - - W 19 28 10 15 - - -
25/05:30am - - - - - WSW 22 37 12 20 - - -
25/05:00am - - - - - WSW 20 35 11 19 - - -
25/04:30am - - - - - WSW 20 33 11 18 - - -
25/04:00am - - - - - WSW 24 39 13 21 - - -
25/03:30am - - - - - WSW 26 46 14 25 - - -
25/03:00am - - - - - WSW 22 43 12 23 - - -
25/02:30am - - - - - SW 24 41 13 22 - - -
25/02:00am - - - - - SW 24 39 13 21 - - -
25/01:30am - - - - - SW 24 41 13 22 - - -
25/01:13am - - - - - SW 30 50 16 27 - - -
25/01:00am - - - - - SW 22 39 12 21 - - -
25/12:30am - - - - - SW 22 43 12 23 - - -
25/12:00am - - - - - WSW 19 32 10 17 - - -
 
Date/Time
EST
Temp
°C
App
Temp
°C
Dew
Point
°C
Rel
Hum
%
Delta-T
°C
Wind Press
QNH
hPa
Press
MSL
hPa
Rain since
9am
mm
Dir  Spd
km/h
Gust
km/h
Spd
kts
Gust
kts
24/11:30pm - - - - - SW 19 28 10 15 - - -
24/11:00pm - - - - - WSW 22 39 12 21 - - -
24/10:30pm - - - - - WSW 26 43 14 23 - - -
24/10:00pm - - - - - SW 24 39 13 21 - - -
24/09:30pm - - - - - SSW 32 52 17 28 - - -
24/09:23pm - - - - - SSW 28 48 15 26 - - -
24/09:15pm - - - - - SW 24 43 13 23 - - -
24/09:00pm - - - - - WSW 15 22 8 12 - - -
24/08:30pm - - - - - WSW 17 33 9 18 - - -
24/08:00pm - - - - - WSW 17 35 9 19 - - -
24/07:30pm - - - - - SW 20 35 11 19 - - -
24/07:00pm - - - - - SW 28 46 15 25 - - -
24/06:58pm - - - - - WSW 28 46 15 25 - - -
24/06:30pm - - - - - SW 24 44 13 24 - - -
24/06:00pm - - - - - SW 24 44 13 24 - - -
24/05:30pm - - - - - SW 33 59 18 32 - - -
24/05:00pm - - - - - SSW 30 48 16 26 - - -
24/04:30pm - - - - - SSW 28 46 15 25 - - -
24/04:00pm - - - - - SSW 33 56 18 30 - - -
24/03:30pm - - - - - SSW 35 69 19 37 - - -
24/03:00pm - - - - - SSW 35 56 19 30 - - -
24/02:30pm - - - - - SSW 39 63 21 34 - - -
24/02:00pm - - - - - SSW 28 50 15 27 - - -
24/01:30pm - - - - - SSW 35 54 19 29 - - -
24/01:00pm - - - - - SW 35 56 19 30 - - -
24/12:30pm - - - - - SSW 32 59 17 32 - - -
24/12:00pm - - - - - SW 37 76 20 41 - - -
24/11:30am - - - - - SSW 35 74 19 40 - - -
24/11:22am - - - - - SSW 28 74 15 40 - - -
24/11:00am - - - - - SW 30 52 16 28 - - -
24/10:30am - - - - - SW 32 52 17 28 - - -
24/10:02am - - - - - SW 30 48 16 26 - - -
24/10:00am - - - - - SSW 32 48 17 26 - - -
24/09:30am - - - - - SW 33 59 18 32 - - -
24/09:00am - - - - - SW 28 46 15 25 - - -
24/08:30am - - - - - SW 24 43 13 23 - - -
24/08:00am - - - - - SW 26 46 14 25 - - -
24/07:30am - - - - - SW 28 44 15 24 - - -
24/07:00am - - - - - SW 24 39 13 21 - - -
24/06:30am - - - - - SW 24 39 13 21 - - -
24/06:00am - - - - - SW 26 39 14 21 - - -
24/05:34am - - - - - SW 28 46 15 25 - - -
24/05:30am - - - - - SW 24 46 13 25 - - -
24/05:29am - - - - - SW 22 46 12 25 - - -
24/05:28am - - - - - SW 22 46 12 25 - - -
24/05:00am - - - - - WSW 19 26 10 14 - - -
24/04:30am - - - - - W 20 33 11 18 - - -
24/04:00am - - - - - W 24 30 13 16 - - -
24/03:30am - - - - - W 26 33 14 18 - - -
24/03:00am - - - - - W 24 33 13 18 - - -
24/02:30am - - - - - W 24 35 13 19 - - -
24/02:00am - - - - - W 24 35 13 19 - - -
24/01:30am - - - - - W 26 33 14 18 - - -
24/01:00am - - - - - W 26 35 14 19 - - -
24/12:30am - - - - - W 22 33 12 18 - - -
24/12:00am - - - - - W 24 33 13 18 - - -
 
Date/Time
EST
Temp
°C
App
Temp
°C
Dew
Point
°C
Rel
Hum
%
Delta-T
°C
Wind Press
QNH
hPa
Press
MSL
hPa
Rain since
9am
mm
Dir  Spd
km/h
Gust
km/h
Spd
kts
Gust
kts
23/11:30pm - - - - - W 26 37 14 20 - - -
23/11:00pm - - - - - W 22 33 12 18 - - -
23/10:30pm - - - - - W 24 33 13 18 - - -
23/10:00pm - - - - - W 24 35 13 19 - - -
23/09:30pm - - - - - W 24 32 13 17 - - -
23/09:00pm - - - - - W 22 32 12 17 - - -
23/08:30pm - - - - - W 19 24 10 13 - - -
23/08:00pm - - - - - W 20 28 11 15 - - -
23/07:30pm - - - - - W 19 22 10 12 - - -
23/07:00pm - - - - - W 19 26 10 14 - - -
23/06:30pm - - - - - W 20 26 11 14 - - -
23/06:00pm - - - - - W 19 26 10 14 - - -
23/05:30pm - - - - - W 24 33 13 18 - - -
23/05:00pm - - - - - W 26 33 14 18 - - -
23/04:30pm - - - - - W 24 33 13 18 - - -
23/04:00pm - - - - - W 24 35 13 19 - - -
23/03:30pm - - - - - W 26 37 14 20 - - -
23/03:00pm - - - - - W 24 39 13 21 - - -
23/02:30pm - - - - - W 26 39 14 21 - - -
23/02:00pm - - - - - W 28 39 15 21 - - -
23/01:30pm - - - - - W 22 32 12 17 - - -
23/01:00pm - - - - - W 24 44 13 24 - - -
23/12:30pm - - - - - WSW 24 44 13 24 - - -
23/12:00pm - - - - - SW 22 35 12 19 - - -
23/11:30am - - - - - SW 19 32 10 17 - - -
23/11:00am - - - - - W 26 43 14 23 - - -

Other formats

Comma delimited format used in spreadsheet applications
http://www.bom.gov.au/fwo/IDN60801/IDN60801.94769.axf

JavaScript Object Notation format (JSON) in row-major order
http://www.bom.gov.au/fwo/IDN60801/IDN60801.94769.json

Data quality

Most of these data are generated automatically and are frequently updated. Quality checks on data are not normally performed. It is possible for incorrect values to appear. Refer to information at About Latest Weather Observations and please check the disclaimer before using these data.